Time;durP1;ratioP1;P1;durP2;ratioP2;P2;SDS_P1;SDS_P2;PMS_P1;PMS_P2;Temp;Humidity;BMP_temperature;BMP_pressure;BME280_temperature;BME280_humidity;BME280_pressure;Samples;Min_cycle;Max_cycle;Signal;HPM_P1;HPM_P2
2022/08/15 00:01:29;;;;;;;13.05;11.65;;;23.00;99.90;;;;;;5050762;28;20236;-78
2022/08/15 00:03:59;;;;;;;13.73;12.30;;;23.00;99.90;;;;;;5051141;28;20275;-80
2022/08/15 00:06:41;;;;;;;14.10;12.13;;;22.90;99.90;;;;;;5034845;28;20639;-78
2022/08/15 00:09:20;;;;;;;13.32;11.50;;;22.90;99.90;;;;;;5050879;28;20193;-78
2022/08/15 00:11:50;;;;;;;15.05;12.55;;;22.90;99.90;;;;;;5049704;28;20244;-78
2022/08/15 00:14:19;;;;;;;13.95;11.55;;;22.90;99.90;;;;;;5051643;28;20209;-77
2022/08/15 00:17:01;;;;;;;15.00;12.05;;;22.80;99.90;;;;;;5051606;28;20216;-79
2022/08/15 00:19:40;;;;;;;15.73;12.15;;;22.80;99.90;;;;;;5050636;28;20205;-76
2022/08/15 00:22:09;;;;;;;13.23;11.82;;;22.80;99.90;;;;;;5049753;28;20216;-77
2022/08/15 00:24:49;;;;;;;17.52;12.05;;;22.80;99.90;;;;;;5051643;28;20227;-76
2022/08/15 00:27:19;;;;;;;16.55;12.00;;;22.70;99.90;;;;;;5050930;28;20232;-79
2022/08/15 00:29:53;;;;;;;13.50;12.10;;;22.70;99.90;;;;;;5050352;28;20204;-77
2022/08/15 00:32:26;;;;;;;17.17;12.05;;;22.60;99.90;;;;;;5050280;28;20590;-78
2022/08/15 00:38:26;;;;;;;14.23;12.60;;;22.50;99.90;;;;;;5049798;28;20259;-76
2022/08/15 00:44:04;;;;;;;17.70;13.20;;;22.40;99.90;;;;;;5030034;28;20245;-78
2022/08/15 00:46:33;;;;;;;16.13;12.95;;;22.40;99.90;;;;;;5033180;28;20685;-78
2022/08/15 00:49:01;;;;;;;15.80;13.13;;;22.30;99.90;;;;;;5049892;28;20220;-78
2022/08/15 00:51:38;;;;;;;13.68;11.68;;;22.30;99.90;;;;;;5049729;28;20760;-76
2022/08/15 00:54:17;;;;;;;15.45;12.90;;;22.20;99.90;;;;;;5049419;28;20695;-79
2022/08/15 00:57:34;;;;;;;14.23;12.70;;;22.20;99.90;;;;;;5049884;28;20197;-78
2022/08/15 01:00:27;;;;;;;17.58;12.98;;;22.10;99.90;;;;;;5048726;28;20312;-78
2022/08/15 01:03:03;;;;;;;14.38;12.65;;;22.10;99.90;;;;;;5032503;28;20790;-77
2022/08/15 01:05:30;;;;;;;14.85;12.98;;;22.10;99.90;;;;;;5049598;28;20197;-77
2022/08/15 01:08:00;;;;;;;19.35;13.10;;;22.00;99.90;;;;;;5049730;28;20228;-78
2022/08/15 01:10:28;;;;;;;15.25;13.65;;;22.00;99.90;;;;;;5031048;28;20689;-77
2022/08/15 01:13:03;;;;;;;17.17;12.48;;;22.00;99.90;;;;;;5049581;28;20221;-78
2022/08/15 01:15:45;;;;;;;16.50;12.90;;;22.00;99.90;;;;;;5049482;28;20209;-76
2022/08/15 01:18:14;;;;;;;14.75;12.95;;;21.90;99.90;;;;;;5049474;28;20267;-77
2022/08/15 01:21:09;;;;;;;15.85;12.88;;;21.80;99.90;;;;;;5033996;28;20231;-76
2022/08/15 01:24:00;;;;;;;13.38;12.07;;;21.90;99.90;;;;;;5050052;28;20207;-78
2022/08/15 01:26:28;;;;;;;14.05;12.02;;;21.80;99.90;;;;;;5048500;28;20208;-78
2022/08/15 01:29:10;;;;;;;15.13;12.98;;;21.80;99.90;;;;;;5048324;28;20205;-77
2022/08/15 01:31:37;;;;;;;16.17;13.68;;;21.80;99.90;;;;;;5049306;28;20197;-77
2022/08/15 01:34:16;;;;;;;13.98;12.48;;;21.70;99.90;;;;;;5048672;28;20229;-77
2022/08/15 01:36:47;;;;;;;14.45;12.65;;;21.70;99.90;;;;;;5049517;28;20213;-78
2022/08/15 01:39:19;;;;;;;16.05;13.10;;;21.70;99.90;;;;;;5049402;28;20911;-78
2022/08/15 01:41:56;;;;;;;15.60;13.15;;;21.80;99.90;;;;;;5048661;28;20640;-76
2022/08/15 01:44:33;;;;;;;16.38;12.50;;;21.70;99.90;;;;;;5049315;28;20569;-77
2022/08/15 01:47:27;;;;;;;16.27;12.52;;;21.70;99.90;;;;;;5048696;28;20217;-76
2022/08/15 01:50:16;;;;;;;17.27;12.85;;;21.60;99.90;;;;;;5048921;28;20209;-76
2022/08/15 01:53:11;;;;;;;13.80;12.25;;;21.60;99.90;;;;;;5048012;28;20665;-79
2022/08/15 01:55:52;;;;;;;13.90;12.18;;;21.60;99.90;;;;;;5048338;28;20263;-76
2022/08/15 01:58:22;;;;;;;14.55;12.38;;;21.70;99.90;;;;;;5048450;28;20201;-78
2022/08/15 02:00:57;;;;;;;14.50;12.18;;;21.60;99.90;;;;;;5048041;28;20213;-77
2022/08/15 02:03:33;;;;;;;14.32;12.25;;;21.60;99.90;;;;;;5048800;28;20219;-77
2022/08/15 02:06:30;;;;;;;14.98;13.30;;;21.70;99.90;;;;;;5048504;28;20288;-77
2022/08/15 02:09:06;;;;;;;16.58;12.77;;;21.70;99.90;;;;;;5048458;28;20201;-77
2022/08/15 02:11:54;;;;;;;15.43;12.65;;;21.70;99.90;;;;;;5048411;28;20680;-77
2022/08/15 02:14:31;;;;;;;17.13;13.07;;;21.70;99.90;;;;;;5048392;28;20215;-77
2022/08/15 02:17:05;;;;;;;19.13;13.48;;;21.70;99.90;;;;;;5047444;28;20247;-77
2022/08/15 02:19:33;;;;;;;18.55;14.52;;;21.60;99.90;;;;;;5048395;28;20204;-77
2022/08/15 02:22:12;;;;;;;16.50;13.30;;;21.60;99.90;;;;;;5047792;28;20228;-77
2022/08/15 02:24:51;;;;;;;17.63;14.60;;;21.70;99.90;;;;;;5048574;28;20189;-79
2022/08/15 02:27:18;;;;;;;17.20;14.65;;;21.60;99.90;;;;;;5048529;28;20708;-78
2022/08/15 02:29:45;;;;;;;18.48;14.63;;;21.50;99.90;;;;;;5048529;28;20692;-78
2022/08/15 02:32:20;;;;;;;17.27;14.98;;;21.50;99.90;;;;;;5030978;28;20221;-79
2022/08/15 02:34:59;;;;;;;18.60;14.55;;;21.50;99.90;;;;;;5048634;28;20216;-76
2022/08/15 02:37:30;;;;;;;19.67;14.25;;;21.40;99.90;;;;;;5047701;28;20205;-77
2022/08/15 02:40:06;;;;;;;19.13;15.07;;;21.40;99.90;;;;;;5048207;28;20201;-77
2022/08/15 02:42:53;;;;;;;16.98;14.52;;;21.40;99.90;;;;;;5047900;28;20223;-77
2022/08/15 02:45:19;;;;;;;17.67;14.18;;;21.40;99.90;;;;;;5028915;28;20265;-77
2022/08/15 02:47:48;;;;;;;20.45;14.75;;;21.30;99.90;;;;;;5028368;28;20304;-76
2022/08/15 02:50:16;;;;;;;18.00;14.48;;;21.40;99.90;;;;;;5028390;28;20229;-77
2022/08/15 02:52:49;;;;;;;15.65;13.95;;;21.40;99.90;;;;;;5044081;28;20205;-78
2022/08/15 02:55:19;;;;;;;15.48;13.60;;;21.30;99.90;;;;;;5048265;28;20288;-77
2022/08/15 02:57:47;;;;;;;16.50;14.25;;;21.20;99.90;;;;;;5048640;28;20581;-77
2022/08/15 03:00:27;;;;;;;16.77;13.80;;;21.30;99.90;;;;;;5048366;28;20267;-76
2022/08/15 03:03:02;;;;;;;19.40;15.38;;;21.20;99.90;;;;;;5048001;28;20308;-77
2022/08/15 03:05:31;;;;;;;16.25;14.30;;;21.20;99.90;;;;;;5049704;28;20256;-78
2022/08/15 03:07:58;;;;;;;18.48;14.35;;;21.20;99.90;;;;;;5049941;28;20243;-77
2022/08/15 03:10:26;;;;;;;16.67;14.82;;;21.20;99.90;;;;;;5048194;28;20323;-76
2022/08/15 03:13:01;;;;;;;15.55;13.60;;;21.20;99.90;;;;;;5031390;28;20201;-77
2022/08/15 03:15:37;;;;;;;15.60;13.95;;;21.20;99.90;;;;;;5047374;28;20213;-77
2022/08/15 03:18:06;;;;;;;19.73;14.90;;;21.20;99.90;;;;;;5047554;28;20223;-76
2022/08/15 03:20:32;;;;;;;18.50;14.73;;;21.10;99.90;;;;;;5047543;28;20311;-78
2022/08/15 03:23:03;;;;;;;17.23;13.80;;;21.10;99.90;;;;;;5048079;28;20205;-77
2022/08/15 03:25:32;;;;;;;19.05;14.80;;;21.10;99.90;;;;;;5046967;28;20579;-78
2022/08/15 03:28:16;;;;;;;16.75;14.60;;;21.10;99.90;;;;;;5050875;28;20662;-77
2022/08/15 03:30:58;;;;;;;17.73;14.77;;;21.10;99.90;;;;;;5051297;28;20243;-78
2022/08/15 03:33:27;;;;;;;17.83;14.70;;;21.00;99.90;;;;;;5033227;28;20244;-76
2022/08/15 03:36:19;;;;;;;15.57;13.60;;;21.00;99.90;;;;;;5051354;28;20690;-78
2022/08/15 03:38:50;;;;;;;16.33;13.10;;;21.00;99.90;;;;;;5034442;28;20201;-78
2022/08/15 03:41:22;;;;;;;17.02;13.52;;;21.00;99.90;;;;;;5050877;28;20755;-76
2022/08/15 03:43:49;;;;;;;18.75;14.77;;;21.00;99.90;;;;;;5050961;28;20252;-77
2022/08/15 03:46:20;;;;;;;17.00;13.75;;;21.00;99.90;;;;;;5050665;28;20243;-78
2022/08/15 03:48:54;;;;;;;17.02;13.77;;;21.00;99.90;;;;;;5051116;28;20740;-78
2022/08/15 03:51:26;;;;;;;22.13;14.52;;;21.00;99.90;;;;;;5051157;28;20212;-78
2022/08/15 03:53:59;;;;;;;16.83;13.65;;;21.00;99.90;;;;;;5034356;28;20287;-77
2022/08/15 03:56:31;;;;;;;17.65;14.10;;;21.00;99.90;;;;;;5050244;28;20211;-77
2022/08/15 03:58:59;;;;;;;15.57;13.63;;;21.00;99.90;;;;;;5033541;28;20243;-77
2022/08/15 04:01:33;;;;;;;16.35;13.73;;;21.00;99.90;;;;;;5049502;28;20225;-77
2022/08/15 04:04:00;;;;;;;17.40;13.02;;;21.00;99.90;;;;;;5051424;28;20206;-77
2022/08/15 04:06:31;;;;;;;17.55;13.15;;;20.90;99.90;;;;;;5041447;28;20213;-78
2022/08/15 04:08:59;;;;;;;14.77;13.10;;;21.00;99.90;;;;;;5040286;28;20296;-77
2022/08/15 04:11:40;;;;;;;17.35;13.90;;;20.90;99.90;;;;;;5030796;28;20227;-79
2022/08/15 04:14:07;;;;;;;17.58;13.82;;;20.90;99.90;;;;;;5030877;28;20279;-77
2022/08/15 04:16:59;;;;;;;14.95;12.95;;;20.80;99.90;;;;;;5030598;28;20388;-77
2022/08/15 04:19:40;;;;;;;17.10;12.85;;;20.80;99.90;;;;;;5030207;28;20301;-77
2022/08/15 04:22:25;;;;;;;16.85;14.05;;;20.90;99.90;;;;;;5030967;28;20236;-77
2022/08/15 04:25:10;;;;;;;17.23;13.13;;;20.90;99.90;;;;;;5029606;28;20273;-76
2022/08/15 04:27:45;;;;;;;17.17;12.88;;;20.80;99.90;;;;;;5039427;28;20201;-76
2022/08/15 04:30:24;;;;;;;16.60;13.23;;;20.80;99.90;;;;;;5050083;28;20208;-77
2022/08/15 04:32:53;;;;;;;16.45;13.45;;;20.90;99.90;;;;;;5050063;28;20221;-78
2022/08/15 04:35:27;;;;;;;16.38;13.70;;;20.90;99.90;;;;;;5050325;28;20559;-77
2022/08/15 04:37:57;;;;;;;16.88;14.48;;;20.90;99.90;;;;;;5047902;28;20652;-77
2022/08/15 04:40:24;;;;;;;18.02;14.80;;;20.80;99.90;;;;;;5031808;28;20213;-78
2022/08/15 04:43:12;;;;;;;18.88;14.23;;;20.80;99.90;;;;;;5029366;28;20216;-78
2022/08/15 04:45:40;;;;;;;19.75;15.43;;;20.70;99.90;;;;;;5041784;28;20215;-79
2022/08/15 04:48:10;;;;;;;22.23;16.15;;;20.70;99.90;;;;;;5031833;28;20279;-78
2022/08/15 04:50:48;;;;;;;19.67;16.45;;;20.50;99.90;;;;;;5026075;28;20210;-77
2022/08/15 04:53:16;;;;;;;22.85;17.73;;;20.40;99.90;;;;;;5029871;28;20202;-79
2022/08/15 04:55:52;;;;;;;21.17;16.33;;;20.30;99.90;;;;;;5028555;28;20307;-79
2022/08/15 04:58:26;;;;;;;21.45;17.73;;;20.30;99.90;;;;;;5031194;28;20304;-77
2022/08/15 05:01:13;;;;;;;20.30;16.45;;;20.20;99.90;;;;;;5049433;28;20234;-79
2022/08/15 05:03:41;;;;;;;24.92;19.02;;;20.10;99.90;;;;;;5067424;28;20217;-78
2022/08/15 05:06:10;;;;;;;23.27;18.63;;;20.10;99.90;;;;;;5067639;28;20258;-78
2022/08/15 05:08:57;;;;;;;24.38;18.40;;;20.00;99.90;;;;;;5069414;28;20204;-77
2022/08/15 05:11:24;;;;;;;22.67;18.42;;;20.00;99.90;;;;;;5067767;28;20700;-78
2022/08/15 05:14:11;;;;;;;23.98;19.90;;;20.00;99.90;;;;;;5054702;28;20216;-78
2022/08/15 05:16:57;;;;;;;24.35;19.20;;;20.00;99.90;;;;;;5068567;28;20232;-79
2022/08/15 05:19:24;;;;;;;26.67;19.52;;;20.00;99.90;;;;;;5069416;28;20204;-77
2022/08/15 05:21:51;;;;;;;27.10;19.95;;;20.10;99.90;;;;;;5068696;28;20235;-79
2022/08/15 05:24:18;;;;;;;25.45;20.10;;;20.20;99.90;;;;;;5050937;28;20232;-78
2022/08/15 05:26:55;;;;;;;29.40;20.13;;;20.30;99.90;;;;;;5069153;28;20208;-78
2022/08/15 05:29:25;;;;;;;22.90;19.00;;;20.40;99.90;;;;;;5068402;28;20213;-77
2022/08/15 05:31:54;;;;;;;27.05;20.70;;;20.40;99.90;;;;;;5068615;28;20200;-78
2022/08/15 05:34:21;;;;;;;24.90;18.85;;;20.50;99.90;;;;;;5069084;28;20253;-77
2022/08/15 05:37:06;;;;;;;27.48;20.08;;;20.60;99.90;;;;;;5068522;28;20200;-78
2022/08/15 05:39:37;;;;;;;23.58;18.30;;;20.80;99.90;;;;;;5066461;28;20231;-78
2022/08/15 05:42:40;;;;;;;27.08;20.05;;;20.90;99.90;;;;;;5066304;28;20653;-78
2022/08/15 05:45:33;;;;;;;25.33;18.23;;;21.00;99.90;;;;;;5040579;28;20288;-77
2022/08/15 05:48:08;;;;;;;22.88;18.77;;;21.20;99.90;;;;;;5047388;28;20256;-78
2022/08/15 05:50:51;;;;;;;29.38;21.02;;;21.40;99.90;;;;;;5047454;28;20204;-78
2022/08/15 05:53:36;;;;;;;25.55;19.23;;;21.60;99.90;;;;;;5047602;28;20216;-78
2022/08/15 05:56:21;;;;;;;23.70;18.48;;;21.80;99.90;;;;;;5048055;28;20660;-77
2022/08/15 05:58:55;;;;;;;20.92;17.70;;;22.00;99.90;;;;;;5030775;28;20264;-78
2022/08/15 06:01:32;;;;;;;25.30;18.40;;;22.20;99.90;;;;;;5030680;28;20220;-78
2022/08/15 06:04:08;;;;;;;26.98;18.20;;;22.40;99.90;;;;;;5049137;28;20213;-77
2022/08/15 06:06:50;;;;;;;19.20;16.08;;;22.60;99.90;;;;;;5060125;28;20303;-79
2022/08/15 06:09:20;;;;;;;20.95;17.98;;;22.80;99.90;;;;;;5068688;28;20330;-77
2022/08/15 06:11:53;;;;;;;19.77;15.88;;;23.00;99.90;;;;;;5068722;28;20246;-79
2022/08/15 06:14:33;;;;;;;20.33;15.23;;;23.40;99.90;;;;;;5050241;28;20250;-77
2022/08/15 06:17:08;;;;;;;17.27;14.90;;;24.30;99.90;;;;;;5068358;28;20220;-77
2022/08/15 06:19:39;;;;;;;19.25;14.50;;;25.10;99.90;;;;;;5068732;28;20193;-78
2022/08/15 06:22:29;;;;;;;16.15;14.13;;;26.00;99.90;;;;;;5067941;28;20228;-77
2022/08/15 06:25:02;;;;;;;14.32;12.80;;;26.90;99.90;;;;;;5055620;28;20213;-77
2022/08/15 06:27:52;;;;;;;14.68;12.85;;;27.70;99.90;;;;;;5067571;28;20513;-76
2022/08/15 06:30:38;;;;;;;14.63;13.07;;;28.20;99.90;;;;;;5065848;28;20231;-78
2022/08/15 06:33:14;;;;;;;15.65;13.18;;;28.80;99.90;;;;;;5067097;28;20303;-77
2022/08/15 06:36:06;;;;;;;15.55;12.82;;;29.00;99.90;;;;;;5067302;28;20220;-77
2022/08/15 06:39:10;;;;;;;13.95;12.48;;;29.50;99.90;;;;;;5065755;28;20209;-76
2022/08/15 06:41:48;;;;;;;13.10;11.57;;;30.10;99.90;;;;;;5047398;28;20212;-75
2022/08/15 06:44:18;;;;;;;13.85;11.82;;;30.60;99.90;;;;;;5067063;28;20211;-78
2022/08/15 06:47:03;;;;;;;13.90;12.50;;;31.10;99.90;;;;;;5059594;28;20249;-75
2022/08/15 06:49:35;;;;;;;13.02;11.73;;;31.40;99.90;;;;;;5065875;28;20214;-79
2022/08/15 06:52:04;;;;;;;12.80;11.60;;;31.70;99.90;;;;;;5068406;28;20702;-78
2022/08/15 06:54:42;;;;;;;12.60;11.40;;;32.10;99.90;;;;;;5069571;28;20236;-76
2022/08/15 06:57:24;;;;;;;14.40;11.52;;;32.40;99.60;;;;;;5068383;28;20258;-75
2022/08/15 07:00:09;;;;;;;13.45;11.77;;;32.50;97.90;;;;;;5080396;28;20219;-77
2022/08/15 07:03:19;;;;;;;13.60;12.30;;;32.80;97.70;;;;;;5066289;28;20587;-76
2022/08/15 07:05:54;;;;;;;14.02;12.60;;;33.10;96.70;;;;;;5074164;28;20568;-78
2022/08/15 07:08:48;;;;;;;18.17;14.65;;;33.20;96.50;;;;;;5071006;28;20703;-79
2022/08/15 07:11:26;;;;;;;17.42;15.60;;;33.00;95.70;;;;;;5071881;28;20683;-78
2022/08/15 07:14:06;;;;;;;16.17;14.52;;;32.80;95.50;;;;;;5071887;28;20254;-76
2022/08/15 07:17:17;;;;;;;19.50;16.40;;;33.00;95.80;;;;;;5052207;28;20443;-79
2022/08/15 07:19:44;;;;;;;17.80;16.05;;;33.10;94.90;;;;;;5067519;28;20249;-77
2022/08/15 07:22:24;;;;;;;17.25;15.40;;;33.00;95.10;;;;;;5056293;28;20420;-78
2022/08/15 07:25:09;;;;;;;17.90;15.93;;;33.30;94.90;;;;;;5068716;28;20249;-77
2022/08/15 07:27:37;;;;;;;16.33;14.65;;;33.50;93.60;;;;;;5071060;28;20612;-79
2022/08/15 07:30:20;;;;;;;16.15;14.52;;;33.00;94.00;;;;;;5088939;28;20745;-78
2022/08/15 07:32:57;;;;;;;16.20;14.60;;;32.40;93.80;;;;;;5089783;28;20249;-77
2022/08/15 07:35:33;;;;;;;15.63;12.90;;;31.90;94.90;;;;;;5064086;28;20208;-80
2022/08/15 07:38:06;;;;;;;15.38;13.48;;;31.60;95.00;;;;;;5069735;28;20197;-79
2022/08/15 07:41:12;;;;;;;16.00;12.63;;;31.30;95.30;;;;;;5070683;28;20201;-79
2022/08/15 07:43:39;;;;;;;15.38;13.43;;;30.90;99.90;;;;;;5075219;28;20219;-78
2022/08/15 07:46:10;;;;;;;12.98;11.65;;;30.30;96.20;;;;;;5069957;28;20530;-77
2022/08/15 07:49:17;;;;;;;11.20;10.10;;;30.00;96.70;;;;;;5067728;28;20232;-78
2022/08/15 07:52:15;;;;;;;11.70;9.57;;;29.60;96.70;;;;;;5069885;28;20226;-78
2022/08/15 07:55:16;;;;;;;11.60;9.07;;;;;;;;;;5066137;28;20204;-76
2022/08/15 07:58:18;;;;;;;9.93;8.50;;;28.50;97.20;;;;;;5065402;28;20192;-76
2022/08/15 08:01:09;;;;;;;9.30;8.07;;;28.20;98.10;;;;;;5062187;28;20196;-76
2022/08/15 08:04:09;;;;;;;8.57;7.22;;;28.00;98.90;;;;;;5071104;28;20212;-76
2022/08/15 08:06:56;;;;;;;8.55;5.85;;;27.90;98.50;;;;;;5062010;28;21022;-77
2022/08/15 08:09:26;;;;;;;7.88;5.00;;;27.50;97.90;;;;;;5070253;28;20224;-79
2022/08/15 08:12:09;;;;;;;5.38;4.65;;;27.40;97.90;;;;;;5073567;28;20616;-77
2022/08/15 08:14:52;;;;;;;8.00;4.78;;;27.30;97.80;;;;;;5080859;28;20203;-77
2022/08/15 08:17:50;;;;;;;5.65;4.20;;;27.30;97.70;;;;;;5080969;28;20208;-77
2022/08/15 08:20:45;;;;;;;7.72;3.88;;;27.30;97.60;;;;;;5070544;28;20245;-77
2022/08/15 08:23:27;;;;;;;4.45;3.55;;;27.40;97.20;;;;;;5057765;28;20728;-79
2022/08/15 08:26:51;;;;;;;5.05;3.88;;;27.60;97.20;;;;;;5076576;28;20200;-77
2022/08/15 08:29:35;;;;;;;6.82;3.80;;;27.70;96.40;;;;;;5027164;28;20221;-78
2022/08/15 08:32:27;;;;;;;8.18;3.53;;;27.70;96.50;;;;;;5016177;28;20258;-80
2022/08/15 08:35:33;;;;;;;4.13;3.15;;;27.90;96.60;;;;;;5058872;28;20695;-78
2022/08/15 08:38:14;;;;;;;3.83;3.20;;;28.00;96.30;;;;;;5055489;28;20211;-76
2022/08/15 08:41:34;;;;;;;4.07;3.28;;;28.10;96.50;;;;;;5078657;28;20232;-78
2022/08/15 08:44:33;;;;;;;5.60;3.47;;;28.20;95.50;;;;;;5069272;28;20252;-78
2022/08/15 08:47:33;;;;;;;6.47;3.42;;;28.30;95.10;;;;;;5074867;28;20219;-76
2022/08/15 08:50:38;;;;;;;5.53;3.38;;;28.50;95.00;;;;;;5068273;28;20209;-79
2022/08/15 08:53:44;;;;;;;3.72;3.15;;;28.60;94.80;;;;;;5069515;28;20242;-78
2022/08/15 08:56:26;;;;;;;6.40;3.90;;;28.70;94.90;;;;;;5063421;28;20200;-79
2022/08/15 08:59:21;;;;;;;3.65;3.25;;;28.80;94.70;;;;;;5070212;28;20234;-78
2022/08/15 09:02:22;;;;;;;3.95;3.65;;;28.90;95.40;;;;;;5069225;28;20246;-79
2022/08/15 09:05:11;;;;;;;6.20;3.22;;;29.10;94.90;;;;;;5051277;28;20231;-79
2022/08/15 09:07:46;;;;;;;4.15;3.08;;;29.20;94.60;;;;;;5051200;28;20668;-80
2022/08/15 09:10:23;;;;;;;3.63;3.33;;;29.10;94.10;;;;;;5072776;28;20275;-80
2022/08/15 09:15:43;;;;;;;4.30;3.30;;;29.10;93.40;;;;;;5067937;28;20619;-79
2022/08/15 09:18:26;;;;;;;3.90;3.50;;;29.10;93.00;;;;;;5070276;28;20230;-78
2022/08/15 09:20:56;;;;;;;5.05;3.30;;;29.00;92.90;;;;;;5066477;28;20222;-79
2022/08/15 09:23:27;;;;;;;5.80;3.28;;;29.10;92.80;;;;;;5079465;28;20220;-79
2022/08/15 09:26:16;;;;;;;4.32;3.40;;;29.20;92.60;;;;;;5079714;28;20203;-78
2022/08/15 09:29:05;;;;;;;3.15;2.85;;;29.20;93.40;;;;;;5085390;28;20214;-78
2022/08/15 09:32:01;;;;;;;3.63;3.08;;;29.20;92.00;;;;;;5067812;28;20236;-79
2022/08/15 09:35:21;;;;;;;6.68;3.10;;;29.30;92.50;;;;;;5067710;28;20192;-79
2022/08/15 09:37:52;;;;;;;6.32;3.45;;;29.30;91.60;;;;;;5068087;28;20199;-78
2022/08/15 09:40:26;;;;;;;4.72;3.22;;;29.30;91.60;;;;;;5071616;28;20200;-77
2022/08/15 09:43:38;;;;;;;3.63;3.22;;;29.30;91.80;;;;;;5067975;28;20286;-77
2022/08/15 09:47:00;;;;;;;4.32;3.30;;;29.40;91.80;;;;;;5082704;28;20196;-78
2022/08/15 09:49:57;;;;;;;6.25;3.53;;;29.60;92.40;;;;;;5067789;28;20193;-81
2022/08/15 09:53:03;;;;;;;8.13;3.45;;;29.80;93.00;;;;;;5052590;28;20224;-79
2022/08/15 09:55:46;;;;;;;4.95;3.70;;;30.10;92.60;;;;;;5065331;28;20192;-78
2022/08/15 09:58:22;;;;;;;5.10;3.42;;;30.20;92.30;;;;;;5071189;28;20216;-81
2022/08/15 10:01:14;;;;;;;4.97;3.72;;;30.30;92.50;;;;;;5071563;28;20210;-77
2022/08/15 10:03:45;;;;;;;8.52;3.70;;;30.40;92.90;;;;;;5050926;28;20251;-76
2022/08/15 10:06:29;;;;;;;6.40;3.65;;;30.40;92.20;;;;;;5068787;28;20197;-78
2022/08/15 10:09:21;;;;;;;4.75;3.55;;;30.30;91.50;;;;;;5068716;28;20196;-77
2022/08/15 10:12:09;;;;;;;5.20;3.58;;;30.20;90.20;;;;;;5066937;28;20258;-77
2022/08/15 10:14:52;;;;;;;7.07;3.47;;;29.80;89.40;;;;;;5055842;28;20200;-77
2022/08/15 10:17:35;;;;;;;5.15;3.60;;;29.80;90.70;;;;;;5068887;28;20357;-78
2022/08/15 10:20:43;;;;;;;3.63;3.15;;;29.90;89.40;;;;;;5070851;28;20260;-78
2022/08/15 10:23:16;;;;;;;3.50;3.17;;;30.00;90.00;;;;;;4992752;28;20844;-81
2022/08/15 10:25:48;;;;;;;3.88;3.42;;;30.00;90.20;;;;;;5077738;28;20204;-79
2022/08/15 10:28:22;;;;;;;5.78;3.67;;;30.10;89.90;;;;;;5077930;28;20200;-79
2022/08/15 10:31:09;;;;;;;7.57;3.67;;;30.20;90.70;;;;;;5076285;28;20555;-79
2022/08/15 10:33:44;;;;;;;3.95;3.47;;;30.10;90.20;;;;;;5058453;28;20251;-77
2022/08/15 10:36:35;;;;;;;7.30;3.65;;;29.90;90.10;;;;;;5066048;28;20196;-78
2022/08/15 10:39:32;;;;;;;5.75;3.67;;;29.90;90.40;;;;;;5067342;28;20211;-78
2022/08/15 10:42:20;;;;;;;5.45;3.50;;;29.90;90.20;;;;;;5061607;28;20276;-77
2022/08/15 10:45:11;;;;;;;6.55;3.78;;;29.70;89.70;;;;;;5067275;28;20216;-78
2022/08/15 10:48:01;;;;;;;8.07;4.32;;;29.70;90.40;;;;;;5076461;28;20589;-77
2022/08/15 10:50:54;;;;;;;5.57;4.13;;;29.60;90.40;;;;;;5065850;28;20550;-77
2022/08/15 10:53:27;;;;;;;5.20;4.60;;;29.60;90.60;;;;;;5067849;28;20576;-77
2022/08/15 10:56:16;;;;;;;4.60;4.10;;;29.50;91.40;;;;;;5067604;28;20193;-79
2022/08/15 10:59:09;;;;;;;4.50;4.05;;;29.40;91.20;;;;;;5056378;28;20235;-78
2022/08/15 11:01:38;;;;;;;5.10;4.00;;;29.30;91.10;;;;;;5080517;28;20207;-78
2022/08/15 11:04:14;;;;;;;8.45;4.50;;;29.30;91.40;;;;;;5052765;28;20298;-79
2022/08/15 11:07:15;;;;;;;5.60;4.38;;;29.30;91.70;;;;;;5076779;28;20646;-78
2022/08/15 11:09:51;;;;;;;6.80;4.50;;;29.20;92.20;;;;;;5044258;28;20204;-80
2022/08/15 11:12:20;;;;;;;6.18;4.30;;;29.10;92.20;;;;;;5069101;28;20253;-80
2022/08/15 11:14:59;;;;;;;6.60;5.00;;;29.10;92.50;;;;;;5060221;28;20204;-79
2022/08/15 11:17:30;;;;;;;5.97;5.32;;;29.00;92.60;;;;;;5066660;28;20220;-78
2022/08/15 11:20:22;;;;;;;7.00;5.70;;;28.90;93.00;;;;;;5065387;28;20281;-79
2022/08/15 11:22:55;;;;;;;5.97;5.30;;;28.70;93.00;;;;;;5064460;28;20229;-78
2022/08/15 11:25:27;;;;;;;8.90;4.90;;;28.60;92.80;;;;;;5086059;28;20215;-79
2022/08/15 11:28:03;;;;;;;6.07;4.97;;;28.50;92.90;;;;;;5085409;28;20204;-79
2022/08/15 11:31:11;;;;;;;6.18;4.30;;;28.40;92.40;;;;;;5067757;28;20189;-78
2022/08/15 11:33:45;;;;;;;8.93;4.53;;;28.40;92.70;;;;;;5076646;28;20204;-80
2022/08/15 11:36:22;;;;;;;4.90;4.47;;;28.40;92.30;;;;;;5068482;28;20665;-78
2022/08/15 11:38:57;;;;;;;6.03;4.50;;;28.40;92.80;;;;;;5067246;28;20213;-78
2022/08/15 11:41:56;;;;;;;6.15;4.80;;;28.50;92.90;;;;;;5062625;28;20208;-79
2022/08/15 11:44:38;;;;;;;6.63;5.10;;;28.80;92.90;;;;;;5065894;28;20236;-79
2022/08/15 11:47:11;;;;;;;6.13;5.32;;;29.20;93.20;;;;;;5065904;28;20274;-77
2022/08/15 11:49:45;;;;;;;6.60;5.07;;;29.60;93.20;;;;;;5079631;28;20622;-77
2022/08/15 11:52:25;;;;;;;6.55;5.05;;;29.90;92.90;;;;;;5070647;28;20200;-78
2022/08/15 11:55:16;;;;;;;5.88;5.03;;;29.90;91.90;;;;;;5069289;28;20200;-77
2022/08/15 11:57:56;;;;;;;7.63;5.22;;;30.00;92.10;;;;;;5071076;28;20231;-78
2022/08/15 12:00:25;;;;;;;8.30;5.28;;;30.10;92.30;;;;;;5065821;28;20374;-76
2022/08/15 12:02:55;;;;;;;5.97;5.38;;;30.00;92.50;;;;;;5052199;28;20224;-78
2022/08/15 12:05:40;;;;;;;6.25;5.32;;;29.80;92.60;;;;;;5059016;28;20312;-80
2022/08/15 12:08:32;;;;;;;7.72;5.60;;;29.70;92.80;;;;;;5070898;28;20735;-80
2022/08/15 12:11:07;;;;;;;8.50;5.70;;;29.80;93.10;;;;;;5070129;28;20566;-78
2022/08/15 12:13:36;;;;;;;7.38;5.78;;;29.80;93.10;;;;;;5070415;28;20194;-76
2022/08/15 12:16:23;;;;;;;9.95;5.88;;;29.70;93.10;;;;;;5072600;28;20209;-77
2022/08/15 12:18:55;;;;;;;7.95;6.22;;;29.80;93.00;;;;;;5072954;28;20212;-79
2022/08/15 12:21:25;;;;;;;8.05;5.40;;;29.80;93.30;;;;;;5063892;28;20292;-78
2022/08/15 12:24:06;;;;;;;6.53;5.38;;;29.90;93.00;;;;;;5071964;28;20216;-79
2022/08/15 12:26:33;;;;;;;5.30;4.80;;;29.90;92.60;;;;;;5070565;28;20196;-76
2022/08/15 12:29:15;;;;;;;7.30;4.68;;;30.00;92.40;;;;;;5068572;28;20661;-77
2022/08/15 12:31:46;;;;;;;6.88;4.47;;;30.10;92.20;;;;;;5073031;28;20324;-78
2022/08/15 12:34:17;;;;;;;8.95;4.75;;;30.10;92.40;;;;;;5072286;28;20199;-75
2022/08/15 12:37:04;;;;;;;5.32;4.82;;;30.10;92.20;;;;;;5071608;28;20210;-77
2022/08/15 12:39:42;;;;;;;5.05;4.55;;;29.90;92.20;;;;;;5070565;28;20284;-77
2022/08/15 12:42:21;;;;;;;5.47;4.97;;;30.10;92.70;;;;;;5071314;28;20242;-76
2022/08/15 12:45:15;;;;;;;9.38;4.82;;;30.20;92.10;;;;;;5069663;28;20271;-77
2022/08/15 12:47:43;;;;;;;5.57;4.13;;;30.30;92.20;;;;;;5075817;28;20231;-77
2022/08/15 12:50:30;;;;;;;6.90;4.90;;;30.50;92.00;;;;;;5071552;28;20691;-77
2022/08/15 12:52:58;;;;;;;4.18;3.65;;;30.70;91.80;;;;;;5070322;28;20614;-75
2022/08/15 12:55:25;;;;;;;5.63;4.05;;;31.00;91.40;;;;;;5079235;28;20210;-77
2022/08/15 12:57:52;;;;;;;9.60;4.40;;;31.10;90.70;;;;;;5074638;28;20199;-77
2022/08/15 13:00:21;;;;;;;7.32;4.35;;;31.10;90.10;;;;;;5070171;28;20232;-73
2022/08/15 13:03:29;;;;;;;8.70;4.70;;;30.90;90.20;;;;;;5069472;28;20220;-76
2022/08/15 13:06:29;;;;;;;5.75;4.40;;;30.90;90.80;;;;;;5071218;28;20231;-79
2022/08/15 13:09:06;;;;;;;10.18;5.20;;;30.80;90.50;;;;;;5056387;28;20727;-78
2022/08/15 13:11:33;;;;;;;9.27;5.03;;;30.60;91.10;;;;;;5048790;28;20201;-77
2022/08/15 13:14:00;;;;;;;7.65;5.85;;;30.50;91.80;;;;;;5069715;28;20205;-78
2022/08/15 13:16:31;;;;;;;8.15;5.72;;;30.30;92.30;;;;;;5051469;28;20208;-76
2022/08/15 13:19:30;;;;;;;6.80;4.65;;;30.40;92.70;;;;;;5067699;28;20308;-76
2022/08/15 13:24:59;;;;;;;5.88;4.25;;;30.70;91.30;;;;;;5070763;28;20220;-77
2022/08/15 13:27:28;;;;;;;7.20;4.40;;;30.90;90.90;;;;;;5081156;28;20192;-77
2022/08/15 13:29:56;;;;;;;7.78;5.40;;;30.90;90.60;;;;;;5070485;28;20204;-76
2022/08/15 13:32:23;;;;;;;6.68;4.53;;;31.00;90.80;;;;;;5069850;28;20614;-75
2022/08/15 13:34:51;;;;;;;6.95;4.70;;;31.10;90.90;;;;;;5070025;28;20227;-77
2022/08/15 13:37:23;;;;;;;8.35;5.43;;;31.10;90.70;;;;;;5070702;28;20613;-78
2022/08/15 13:40:17;;;;;;;5.28;4.70;;;31.00;90.70;;;;;;5067339;28;20558;-79
2022/08/15 13:42:54;;;;;;;8.82;4.65;;;30.90;90.90;;;;;;5056966;28;20679;-81
2022/08/15 13:45:29;;;;;;;7.07;4.82;;;30.80;90.70;;;;;;5065273;28;20220;-79
2022/08/15 13:48:23;;;;;;;6.47;5.40;;;30.80;91.10;;;;;;5068516;28;20208;-75
2022/08/15 13:50:51;;;;;;;6.95;5.40;;;30.80;91.30;;;;;;5067862;28;20318;-77
2022/08/15 13:53:20;;;;;;;10.50;5.47;;;30.70;91.10;;;;;;5052110;28;20196;-79